Time;durP1;ratioP1;P1;durP2;ratioP2;P2;SDS_P1;SDS_P2;PMS_P1;PMS_P2;Temp;Humidity;BMP_temperature;BMP_pressure;BME280_temperature;BME280_humidity;BME280_pressure;Samples;Min_cycle;Max_cycle;Signal;HPM_P1;HPM_P2
2023/05/25 00:02:08;;;;;;;2.70;1.17;;;22.60;39.30;;;;;;5060260;28;20093;-63
2023/05/25 00:04:34;;;;;;;1.77;1.00;;;22.60;39.40;;;;;;5056723;28;20037;-61
2023/05/25 00:07:00;;;;;;;2.40;1.30;;;22.60;39.40;;;;;;5061350;28;20158;-64
2023/05/25 00:09:26;;;;;;;2.28;1.20;;;22.60;39.40;;;;;;5060473;28;20032;-64
2023/05/25 00:11:52;;;;;;;3.22;1.08;;;22.60;39.50;;;;;;5059924;28;20135;-64
2023/05/25 00:14:18;;;;;;;3.15;1.38;;;22.60;39.50;;;;;;5042860;28;20113;-61
2023/05/25 00:16:47;;;;;;;1.58;0.82;;;22.60;39.50;;;;;;5037325;28;20028;-62
2023/05/25 00:19:14;;;;;;;4.10;1.38;;;22.60;39.50;;;;;;5065794;28;20087;-63
2023/05/25 00:21:47;;;;;;;1.92;1.00;;;22.50;39.50;;;;;;5063081;28;20095;-62
2023/05/25 00:24:13;;;;;;;2.15;1.23;;;22.50;39.50;;;;;;5041318;28;20383;-63
2023/05/25 00:26:39;;;;;;;3.08;1.25;;;22.50;39.60;;;;;;5057261;28;20429;-61
2023/05/25 00:29:05;;;;;;;1.92;1.10;;;22.50;39.60;;;;;;5041036;28;20047;-64
2023/05/25 00:31:32;;;;;;;2.30;1.20;;;22.50;39.60;;;;;;5039574;28;20467;-64
2023/05/25 00:33:59;;;;;;;2.58;1.20;;;22.50;39.60;;;;;;5064342;28;20051;-63
2023/05/25 00:36:25;;;;;;;1.48;0.93;;;22.50;39.60;;;;;;5070236;28;20033;-62
2023/05/25 00:38:51;;;;;;;2.72;0.90;;;22.50;39.70;;;;;;5058314;28;20051;-62
2023/05/25 00:41:17;;;;;;;2.08;1.10;;;22.50;39.70;;;;;;5064876;28;20016;-64
2023/05/25 00:43:46;;;;;;;1.15;0.77;;;22.50;39.60;;;;;;5045895;28;20551;-63
2023/05/25 00:46:14;;;;;;;2.33;1.08;;;22.50;39.70;;;;;;5068801;28;20051;-64
2023/05/25 00:48:41;;;;;;;2.15;1.00;;;22.50;39.70;;;;;;5047783;28;20063;-64
2023/05/25 00:51:09;;;;;;;2.67;1.20;;;22.50;39.70;;;;;;5061870;28;20029;-62
2023/05/25 00:53:36;;;;;;;1.77;0.95;;;22.50;39.70;;;;;;5037303;28;20040;-65
2023/05/25 00:56:04;;;;;;;2.58;1.00;;;22.40;39.60;;;;;;5068382;28;20085;-61
2023/05/25 00:58:33;;;;;;;2.55;1.20;;;22.40;39.60;;;;;;5061149;28;20052;-63
2023/05/25 01:01:00;;;;;;;2.22;1.05;;;22.40;39.70;;;;;;5043473;28;20032;-62
2023/05/25 01:03:29;;;;;;;2.97;1.23;;;22.40;39.70;;;;;;5057634;28;20037;-64
2023/05/25 01:05:57;;;;;;;2.55;1.10;;;22.40;39.70;;;;;;5036261;28;20066;-61
2023/05/25 01:08:24;;;;;;;1.75;1.10;;;22.40;39.80;;;;;;5038801;28;20320;-66
2023/05/25 01:10:52;;;;;;;3.30;1.20;;;22.40;39.80;;;;;;5061332;28;20029;-62
2023/05/25 01:13:19;;;;;;;2.03;1.00;;;22.40;39.80;;;;;;5042005;28;20175;-62
2023/05/25 01:15:46;;;;;;;2.03;1.10;;;22.40;40.40;;;;;;5038577;28;20037;-61
2023/05/25 01:18:16;;;;;;;1.80;0.90;;;22.40;39.80;;;;;;5059422;28;20029;-63
2023/05/25 01:21:11;;;;;;;3.03;1.30;;;22.40;39.80;;;;;;5039419;28;20044;-63
2023/05/25 01:23:42;;;;;;;2.33;1.20;;;22.40;39.80;;;;;;5043044;28;20032;-64
2023/05/25 01:26:14;;;;;;;1.45;0.90;;;22.40;39.80;;;;;;5038100;28;20108;-63
2023/05/25 01:28:45;;;;;;;1.92;1.00;;;22.40;39.80;;;;;;5056426;28;20093;-60
2023/05/25 01:31:14;;;;;;;1.63;0.88;;;22.40;39.80;;;;;;5047233;28;20047;-62
2023/05/25 01:33:43;;;;;;;2.28;1.02;;;22.40;39.80;;;;;;5035476;28;20025;-61
2023/05/25 01:36:08;;;;;;;2.55;1.13;;;22.40;39.80;;;;;;5048113;28;20304;-62
2023/05/25 01:38:35;;;;;;;2.15;0.85;;;22.40;39.70;;;;;;5059565;28;20111;-60
2023/05/25 01:41:02;;;;;;;2.25;1.20;;;22.40;39.70;;;;;;5044238;28;20068;-65
2023/05/25 01:43:28;;;;;;;3.53;1.00;;;22.40;39.70;;;;;;5061385;28;20077;-64
2023/05/25 01:46:01;;;;;;;3.08;1.27;;;22.40;39.70;;;;;;5041236;28;20044;-63
2023/05/25 01:48:31;;;;;;;;;;;22.40;39.70;;;;;;5065197;28;20025;-62
2023/05/25 01:51:01;;;;;;;2.97;1.20;;;22.40;39.70;;;;;;5047728;28;19953;-64
2023/05/25 01:53:34;;;;;;;1.50;0.90;;;22.40;39.70;;;;;;5039021;28;20476;-64
2023/05/25 01:56:07;;;;;;;2.05;1.30;;;22.40;39.70;;;;;;5037277;28;20021;-61
2023/05/25 01:58:45;;;;;;;2.08;1.10;;;22.40;39.70;;;;;;5037321;28;20021;-61
2023/05/25 02:01:14;;;;;;;2.25;1.00;;;22.40;39.70;;;;;;5044253;28;20355;-63
2023/05/25 02:03:45;;;;;;;1.90;1.10;;;22.40;39.70;;;;;;5036657;28;20073;-64
2023/05/25 02:06:14;;;;;;;3.50;1.27;;;22.40;39.70;;;;;;5044322;28;20127;-62
2023/05/25 02:08:40;;;;;;;2.13;1.20;;;22.40;39.80;;;;;;5058487;28;20020;-62
2023/05/25 02:11:06;;;;;;;1.73;0.82;;;22.30;39.70;;;;;;5033943;28;20459;-64
2023/05/25 02:13:32;;;;;;;1.83;0.90;;;22.40;39.80;;;;;;5059542;28;20108;-61
2023/05/25 02:15:58;;;;;;;3.38;1.50;;;22.30;39.80;;;;;;5044058;28;20373;-62
2023/05/25 02:18:24;;;;;;;2.67;1.10;;;22.40;39.90;;;;;;5040666;28;20336;-62
2023/05/25 02:20:53;;;;;;;1.98;1.15;;;22.40;39.90;;;;;;5063930;28;20021;-63
2023/05/25 02:23:19;;;;;;;2.75;1.02;;;22.30;39.80;;;;;;5039832;28;20298;-63
2023/05/25 02:25:45;;;;;;;1.30;0.90;;;22.40;39.90;;;;;;5063617;28;20036;-62
2023/05/25 02:28:11;;;;;;;4.20;1.73;;;22.30;39.80;;;;;;5064632;28;20024;-64
2023/05/25 02:30:37;;;;;;;1.75;0.98;;;22.40;39.80;;;;;;5037405;28;20048;-61
2023/05/25 02:33:03;;;;;;;1.98;1.10;;;22.30;39.80;;;;;;5028914;28;20099;-62
2023/05/25 02:35:29;;;;;;;3.25;1.10;;;22.30;39.80;;;;;;5043598;28;20535;-66
2023/05/25 02:37:55;;;;;;;3.55;1.65;;;22.30;39.70;;;;;;5040026;28;20116;-63
2023/05/25 02:40:21;;;;;;;1.73;1.10;;;22.30;39.70;;;;;;5043997;28;20028;-64
2023/05/25 02:42:47;;;;;;;3.33;1.10;;;22.40;39.80;;;;;;5030401;28;20035;-63
2023/05/25 02:45:13;;;;;;;2.30;1.10;;;22.40;39.70;;;;;;5047613;28;20384;-62
2023/05/25 02:47:40;;;;;;;3.28;1.10;;;22.30;39.70;;;;;;5033959;28;20337;-64
2023/05/25 02:50:06;;;;;;;2.25;1.05;;;22.40;39.70;;;;;;5039799;28;20021;-65
2023/05/25 02:52:37;;;;;;;2.83;1.23;;;22.30;39.60;;;;;;5040831;28;20401;-61
2023/05/25 02:55:04;;;;;;;1.55;1.00;;;22.30;39.60;;;;;;5039397;28;20067;-63
2023/05/25 02:57:36;;;;;;;2.42;1.08;;;22.30;39.50;;;;;;5040117;28;21839;-62
2023/05/25 03:00:06;;;;;;;2.15;0.98;;;22.30;39.50;;;;;;5045788;28;20047;-61
2023/05/25 03:02:33;;;;;;;1.70;1.08;;;22.30;39.50;;;;;;5039694;28;20073;-63
2023/05/25 03:05:01;;;;;;;2.65;1.00;;;22.30;39.50;;;;;;5032266;28;20147;-63
2023/05/25 03:07:27;;;;;;;2.50;1.15;;;22.30;39.50;;;;;;5030234;28;20389;-64
2023/05/25 03:09:54;;;;;;;3.17;1.27;;;22.30;39.50;;;;;;5026622;28;20021;-62
2023/05/25 03:12:21;;;;;;;1.73;0.90;;;22.30;39.50;;;;;;5037731;28;20424;-64
2023/05/25 03:14:47;;;;;;;1.77;0.95;;;22.40;39.50;;;;;;5042689;28;20132;-62
2023/05/25 03:17:13;;;;;;;2.60;0.88;;;22.40;39.50;;;;;;5038499;28;20052;-64
2023/05/25 03:19:38;;;;;;;2.08;1.00;;;22.30;39.40;;;;;;5037628;28;20024;-62
2023/05/25 03:22:04;;;;;;;2.35;1.10;;;22.40;39.50;;;;;;5059930;28;20039;-65
2023/05/25 03:24:32;;;;;;;3.00;1.10;;;22.40;39.40;;;;;;5038059;28;20040;-61
2023/05/25 03:27:00;;;;;;;2.03;1.15;;;22.40;39.40;;;;;;5045367;28;20116;-65
2023/05/25 03:29:26;;;;;;;2.60;1.00;;;22.40;40.00;;;;;;5040811;28;20032;-64
2023/05/25 03:31:52;;;;;;;1.67;1.00;;;22.30;39.30;;;;;;5043269;28;20079;-65
2023/05/25 03:34:23;;;;;;;2.17;0.93;;;22.40;39.40;;;;;;5045655;28;20020;-61
2023/05/25 03:36:50;;;;;;;2.63;1.30;;;22.40;39.40;;;;;;5064207;28;20043;-63
2023/05/25 03:39:17;;;;;;;3.20;1.10;;;22.40;39.40;;;;;;5035346;28;20083;-63
2023/05/25 03:41:43;;;;;;;2.13;1.08;;;22.40;39.40;;;;;;5035540;28;20290;-63
2023/05/25 03:44:09;;;;;;;1.98;1.20;;;22.40;39.40;;;;;;5025672;28;20379;-63
2023/05/25 03:46:36;;;;;;;2.55;1.10;;;22.40;39.40;;;;;;5015424;28;20410;-63
2023/05/25 03:49:02;;;;;;;2.30;0.93;;;22.40;39.40;;;;;;5017082;28;20147;-61
2023/05/25 03:51:30;;;;;;;2.60;1.13;;;22.40;39.40;;;;;;5020911;28;20359;-63
2023/05/25 03:53:55;;;;;;;2.70;1.30;;;22.40;39.30;;;;;;5015790;28;20036;-63
2023/05/25 03:56:22;;;;;;;2.72;1.20;;;22.40;39.30;;;;;;5017512;28;20393;-63
2023/05/25 03:58:48;;;;;;;2.80;1.10;;;22.40;39.30;;;;;;5017408;28;20053;-61
2023/05/25 04:01:15;;;;;;;1.88;0.95;;;22.30;39.30;;;;;;5002965;28;20410;-64
2023/05/25 04:03:41;;;;;;;2.13;1.00;;;22.40;39.30;;;;;;5019244;28;20025;-63
2023/05/25 04:06:07;;;;;;;2.08;1.08;;;22.30;39.30;;;;;;5025616;28;20201;-64
2023/05/25 04:08:33;;;;;;;3.45;1.20;;;22.40;39.30;;;;;;5012106;28;20112;-64
2023/05/25 04:10:59;;;;;;;2.47;1.13;;;22.40;39.30;;;;;;5016033;28;20519;-63
2023/05/25 04:13:27;;;;;;;2.25;1.10;;;22.40;39.30;;;;;;5013834;28;20322;-65
2023/05/25 04:15:53;;;;;;;3.17;1.20;;;22.40;39.30;;;;;;5016399;28;20393;-62
2023/05/25 04:18:24;;;;;;;3.58;1.13;;;22.40;39.30;;;;;;5019915;28;20032;-66
2023/05/25 04:20:50;;;;;;;2.50;1.05;;;22.40;39.30;;;;;;5015022;28;20037;-64
2023/05/25 04:23:20;;;;;;;2.28;1.00;;;22.40;39.30;;;;;;5015861;28;20422;-65
2023/05/25 04:25:46;;;;;;;2.47;1.20;;;22.40;39.30;;;;;;5015055;28;20082;-62
2023/05/25 04:28:13;;;;;;;2.38;1.00;;;22.40;39.30;;;;;;5015156;28;20084;-61
2023/05/25 04:30:57;;;;;;;2.53;1.08;;;22.40;39.30;;;;;;5020905;28;20040;-61
2023/05/25 04:33:58;;;;;;;2.00;1.05;;;22.40;39.30;;;;;;4962369;28;20107;-63
2023/05/25 04:36:31;;;;;;;2.38;1.20;;;22.40;39.30;;;;;;5011461;28;20077;-63
2023/05/25 04:39:01;;;;;;;1.55;0.90;;;22.40;39.30;;;;;;5017410;28;20044;-64
2023/05/25 04:41:28;;;;;;;1.60;1.00;;;22.40;39.30;;;;;;5017377;28;20410;-65
2023/05/25 04:43:58;;;;;;;4.28;1.38;;;22.40;39.30;;;;;;5020348;28;20047;-61
2023/05/25 04:46:24;;;;;;;3.17;1.10;;;22.40;39.30;;;;;;5038480;28;20397;-61
2023/05/25 04:48:51;;;;;;;2.10;1.00;;;22.40;39.30;;;;;;5042924;28;20041;-61
2023/05/25 04:51:16;;;;;;;1.83;1.30;;;22.40;39.30;;;;;;5038057;28;20029;-64
2023/05/25 04:53:42;;;;;;;2.17;1.05;;;22.40;39.30;;;;;;5037925;28;20421;-63
2023/05/25 04:56:08;;;;;;;2.85;1.15;;;22.40;39.30;;;;;;5039780;28;20227;-63
2023/05/25 04:58:35;;;;;;;2.22;1.00;;;22.50;39.30;;;;;;5039503;28;20033;-63
2023/05/25 05:01:01;;;;;;;2.80;1.33;;;22.50;40.00;;;;;;5038628;28;20360;-61
2023/05/25 05:03:27;;;;;;;1.30;0.77;;;22.50;39.40;;;;;;5037973;28;20465;-63
2023/05/25 05:05:53;;;;;;;1.35;1.02;;;22.50;39.50;;;;;;5045489;28;20147;-64
2023/05/25 05:08:23;;;;;;;1.67;0.93;;;22.50;39.60;;;;;;5035304;28;20035;-64
2023/05/25 05:10:50;;;;;;;2.35;1.17;;;22.50;39.70;;;;;;5038445;28;20149;-62
2023/05/25 05:13:16;;;;;;;3.60;0.88;;;22.50;39.70;;;;;;5039660;28;20135;-63
2023/05/25 05:15:42;;;;;;;1.88;1.13;;;22.50;39.80;;;;;;5038377;28;20029;-63
2023/05/25 05:18:08;;;;;;;1.88;0.95;;;22.50;39.80;;;;;;5037283;28;20043;-61
2023/05/25 05:20:34;;;;;;;1.60;0.90;;;22.50;39.80;;;;;;5035461;28;20066;-64
2023/05/25 05:23:00;;;;;;;1.52;0.90;;;22.50;39.90;;;;;;5030624;28;20324;-62
2023/05/25 05:25:26;;;;;;;2.42;0.90;;;22.50;39.90;;;;;;5032861;28;20068;-65
2023/05/25 05:27:52;;;;;;;2.08;1.10;;;22.50;40.00;;;;;;5028926;28;20364;-65
2023/05/25 05:30:30;;;;;;;2.22;1.00;;;22.50;40.10;;;;;;5030350;28;20077;-64
2023/05/25 05:32:56;;;;;;;3.55;0.90;;;22.50;40.10;;;;;;5028943;28;20433;-65
2023/05/25 05:35:26;;;;;;;2.50;1.08;;;22.50;40.20;;;;;;5031820;28;20041;-62
2023/05/25 05:38:00;;;;;;;3.13;1.07;;;22.50;40.20;;;;;;5029156;28;20456;-61
2023/05/25 05:40:26;;;;;;;1.83;0.93;;;22.50;40.30;;;;;;5034327;28;20036;-62
2023/05/25 05:42:52;;;;;;;2.75;1.10;;;22.40;40.20;;;;;;5033864;28;20026;-62
2023/05/25 05:45:18;;;;;;;3.10;1.08;;;22.50;40.30;;;;;;5033210;28;20062;-65
2023/05/25 05:47:44;;;;;;;2.30;1.05;;;22.40;40.30;;;;;;5024936;28;20318;-64
2023/05/25 05:50:10;;;;;;;3.20;1.13;;;22.50;40.40;;;;;;5020161;28;20127;-63
2023/05/25 05:52:37;;;;;;;2.47;1.20;;;22.50;40.40;;;;;;5029302;28;20039;-64
2023/05/25 05:55:04;;;;;;;2.33;0.80;;;22.50;40.40;;;;;;5031685;28;20103;-63
2023/05/25 05:57:29;;;;;;;3.83;1.05;;;22.40;40.40;;;;;;5027056;28;20039;-61
2023/05/25 05:59:55;;;;;;;2.53;1.10;;;22.40;40.50;;;;;;5023007;28;20509;-66
2023/05/25 06:02:22;;;;;;;2.30;1.00;;;22.50;40.60;;;;;;5024152;28;20177;-65
2023/05/25 06:04:48;;;;;;;2.97;1.30;;;22.50;40.60;;;;;;5026089;28;20065;-63
2023/05/25 06:07:14;;;;;;;3.55;1.10;;;22.50;40.60;;;;;;5028724;28;20068;-65
2023/05/25 06:09:40;;;;;;;2.85;1.10;;;22.50;40.70;;;;;;5029390;28;20033;-61
2023/05/25 06:12:07;;;;;;;2.10;1.00;;;22.40;40.70;;;;;;5013810;28;20390;-62
2023/05/25 06:14:33;;;;;;;1.20;0.90;;;22.50;40.80;;;;;;5034397;28;20151;-61
2023/05/25 06:17:01;;;;;;;2.53;1.10;;;22.50;40.80;;;;;;5046695;28;20044;-65
2023/05/25 06:19:27;;;;;;;3.25;1.20;;;22.50;40.80;;;;;;5035677;28;20025;-64
2023/05/25 06:21:53;;;;;;;2.20;1.00;;;22.50;40.80;;;;;;5026262;28;20048;-63
2023/05/25 06:24:20;;;;;;;2.05;1.23;;;22.50;40.90;;;;;;5023127;28;20045;-62
2023/05/25 06:26:46;;;;;;;2.05;1.10;;;22.50;40.90;;;;;;5029006;28;20029;-64
2023/05/25 06:29:13;;;;;;;3.50;1.45;;;22.50;40.90;;;;;;5030884;28;20484;-64
2023/05/25 06:31:38;;;;;;;2.83;1.30;;;22.50;40.90;;;;;;5032223;28;20020;-63
2023/05/25 06:34:05;;;;;;;2.70;1.20;;;22.50;40.90;;;;;;5049692;28;20072;-62
2023/05/25 06:36:31;;;;;;;2.65;1.15;;;22.50;41.00;;;;;;5049517;28;20025;-62
2023/05/25 06:38:57;;;;;;;2.53;1.38;;;22.50;41.00;;;;;;5048417;28;20029;-64
2023/05/25 06:41:23;;;;;;;2.88;1.10;;;22.50;41.10;;;;;;5031868;28;20441;-62
2023/05/25 06:43:49;;;;;;;2.35;1.23;;;22.50;41.00;;;;;;5048409;28;20465;-62
2023/05/25 06:46:24;;;;;;;2.63;1.30;;;22.50;41.00;;;;;;5034150;28;20037;-62
2023/05/25 06:48:50;;;;;;;3.65;1.40;;;22.50;41.00;;;;;;5042699;28;20024;-63
2023/05/25 06:51:17;;;;;;;2.78;1.13;;;22.50;41.00;;;;;;5070207;28;20404;-64
2023/05/25 06:53:43;;;;;;;2.72;1.10;;;22.50;41.00;;;;;;5067148;28;20116;-66
2023/05/25 06:56:09;;;;;;;3.05;1.40;;;22.50;41.00;;;;;;5050556;28;20041;-62
2023/05/25 06:58:35;;;;;;;4.40;1.58;;;22.60;41.00;;;;;;5050364;28;20025;-63
2023/05/25 07:01:01;;;;;;;2.42;1.30;;;22.50;40.90;;;;;;5050347;28;20074;-62
2023/05/25 07:03:26;;;;;;;1.88;1.05;;;22.50;40.90;;;;;;5049724;28;20374;-64
2023/05/25 07:05:52;;;;;;;3.25;1.33;;;22.60;41.00;;;;;;5050222;28;20029;-63
2023/05/25 07:08:18;;;;;;;2.92;1.40;;;22.50;40.90;;;;;;5061954;28;20044;-64
2023/05/25 07:10:44;;;;;;;2.65;1.40;;;22.60;40.90;;;;;;5051569;28;20028;-64
2023/05/25 07:13:10;;;;;;;1.75;1.10;;;22.60;41.00;;;;;;5069242;28;20040;-64
2023/05/25 07:15:36;;;;;;;2.10;1.13;;;22.50;40.90;;;;;;5054318;28;20439;-64
2023/05/25 07:18:02;;;;;;;1.77;1.00;;;22.60;41.00;;;;;;5055950;28;20047;-63
2023/05/25 07:20:28;;;;;;;1.98;1.20;;;22.60;40.90;;;;;;5067677;28;20039;-62
2023/05/25 07:22:54;;;;;;;3.25;1.30;;;22.60;40.90;;;;;;5049942;28;20471;-65
2023/05/25 07:25:20;;;;;;;2.42;1.20;;;22.60;40.90;;;;;;5057044;28;20067;-61
2023/05/25 07:27:53;;;;;;;3.08;1.40;;;22.60;40.80;;;;;;5035747;28;20025;-63
2023/05/25 07:30:19;;;;;;;3.25;1.23;;;22.60;40.80;;;;;;5068972;28;20021;-65
2023/05/25 07:32:45;;;;;;;3.22;1.45;;;22.60;40.80;;;;;;5061606;28;20060;-65
2023/05/25 07:35:11;;;;;;;3.85;1.30;;;22.60;40.70;;;;;;5059472;28;20074;-63
2023/05/25 07:37:37;;;;;;;5.43;1.65;;;22.60;40.70;;;;;;5062477;28;20035;-64
2023/05/25 07:40:03;;;;;;;3.38;1.30;;;22.60;40.60;;;;;;5060889;28;20159;-64
2023/05/25 07:42:33;;;;;;;2.45;1.17;;;22.60;40.60;;;;;;5042051;28;20025;-63
2023/05/25 07:44:59;;;;;;;3.15;1.30;;;22.60;40.60;;;;;;5060993;28;20045;-65
2023/05/25 07:47:26;;;;;;;2.63;1.10;;;22.70;40.60;;;;;;5062794;28;20405;-63
2023/05/25 07:49:52;;;;;;;2.08;1.20;;;22.70;40.60;;;;;;5057628;28;20028;-60
2023/05/25 07:52:18;;;;;;;3.33;1.40;;;22.70;40.50;;;;;;5062209;28;20024;-62
2023/05/25 07:54:44;;;;;;;2.42;1.30;;;22.70;40.50;;;;;;5060849;28;20052;-62
2023/05/25 07:57:10;;;;;;;4.25;1.40;;;22.70;40.50;;;;;;5062754;28;20033;-67
2023/05/25 07:59:36;;;;;;;3.53;1.35;;;22.70;40.40;;;;;;5063902;28;20033;-63
2023/05/25 08:02:02;;;;;;;3.20;1.17;;;22.70;40.40;;;;;;5053425;28;20348;-63
2023/05/25 08:04:30;;;;;;;2.92;1.15;;;22.70;40.40;;;;;;5054948;28;20413;-62
2023/05/25 08:06:56;;;;;;;2.65;1.33;;;22.70;40.30;;;;;;5053615;28;20040;-63
2023/05/25 08:09:22;;;;;;;2.38;1.10;;;22.80;40.40;;;;;;5054276;28;20028;-62
2023/05/25 08:11:47;;;;;;;2.97;1.40;;;22.80;40.40;;;;;;5053458;28;20279;-64
2023/05/25 08:14:13;;;;;;;2.00;0.93;;;22.70;40.20;;;;;;5057278;28;20052;-62
2023/05/25 08:16:39;;;;;;;1.92;0.95;;;22.80;40.20;;;;;;5057546;28;20053;-67
2023/05/25 08:19:05;;;;;;;2.72;1.05;;;22.80;40.20;;;;;;5056366;28;20418;-62
2023/05/25 08:21:33;;;;;;;3.13;1.23;;;22.80;40.10;;;;;;5063652;28;20471;-63
2023/05/25 08:24:02;;;;;;;3.03;1.13;;;22.80;40.30;;;;;;5072915;28;20040;-62
2023/05/25 08:26:29;;;;;;;4.03;1.30;;;22.80;40.00;;;;;;5073175;28;20063;-64
2023/05/25 08:28:55;;;;;;;3.53;1.40;;;22.80;40.00;;;;;;5023256;28;20029;-63
2023/05/25 08:31:21;;;;;;;2.70;1.10;;;22.80;39.90;;;;;;5053312;28;20032;-62
2023/05/25 08:33:47;;;;;;;3.00;1.25;;;22.80;39.80;;;;;;5071275;28;20053;-61
2023/05/25 08:36:13;;;;;;;2.92;1.23;;;22.80;39.80;;;;;;5059492;28;20041;-63
2023/05/25 08:38:39;;;;;;;3.20;1.77;;;22.80;39.80;;;;;;5061175;28;20098;-61
2023/05/25 08:41:05;;;;;;;3.88;1.55;;;22.80;39.80;;;;;;5052771;28;20040;-61
2023/05/25 08:43:32;;;;;;;3.40;1.42;;;22.90;39.80;;;;;;5034857;28;20464;-62
2023/05/25 08:46:06;;;;;;;2.92;1.38;;;22.80;39.70;;;;;;5052885;28;20041;-63
2023/05/25 08:48:36;;;;;;;2.58;1.10;;;22.90;39.70;;;;;;5062370;28;20056;-61
2023/05/25 08:51:09;;;;;;;2.25;1.10;;;22.90;39.70;;;;;;5052032;28;20047;-62
2023/05/25 08:53:37;;;;;;;3.10;1.38;;;22.90;39.60;;;;;;5034907;28;20029;-66
2023/05/25 08:56:25;;;;;;;2.80;1.00;;;22.90;39.60;;;;;;5052684;28;20084;-62
2023/05/25 08:59:34;;;;;;;2.40;1.25;;;22.90;39.50;;;;;;5071054;28;20355;-62
2023/05/25 09:02:07;;;;;;;3.78;1.23;;;22.90;39.50;;;;;;5012089;28;20097;-64
2023/05/25 09:04:33;;;;;;;3.20;1.20;;;22.90;39.50;;;;;;5051375;28;20048;-61
2023/05/25 09:07:00;;;;;;;3.25;1.30;;;22.90;39.50;;;;;;5051938;28;20078;-61
2023/05/25 09:09:27;;;;;;;3.40;1.20;;;22.90;39.40;;;;;;5059461;28;20433;-66
2023/05/25 09:11:55;;;;;;;1.90;0.95;;;22.90;39.40;;;;;;5052554;28;20100;-61
2023/05/25 09:14:21;;;;;;;2.38;1.00;;;22.90;39.40;;;;;;5052127;28;20040;-62
2023/05/25 09:16:49;;;;;;;2.92;1.33;;;23.00;39.40;;;;;;5051812;28;20033;-64
2023/05/25 09:19:15;;;;;;;2.50;1.13;;;23.00;39.40;;;;;;5051292;28;20102;-64
2023/05/25 09:21:40;;;;;;;4.13;1.50;;;23.00;39.40;;;;;;5060995;28;20033;-61
2023/05/25 09:24:07;;;;;;;3.50;1.25;;;23.00;39.40;;;;;;5052277;28;20124;-61
2023/05/25 09:26:33;;;;;;;3.05;1.25;;;23.00;39.30;;;;;;5054101;28;20085;-63
2023/05/25 09:29:00;;;;;;;2.63;1.17;;;23.00;39.20;;;;;;5061742;28;20053;-64
2023/05/25 09:31:27;;;;;;;2.97;1.20;;;23.00;39.10;;;;;;5051779;28;20408;-64
2023/05/25 09:33:58;;;;;;;2.95;1.33;;;23.00;39.10;;;;;;5033665;28;20125;-64
2023/05/25 09:36:25;;;;;;;1.95;1.13;;;23.00;39.00;;;;;;5050406;28;20457;-62
2023/05/25 09:38:55;;;;;;;3.70;1.30;;;23.00;39.60;;;;;;5064847;28;20032;-62
2023/05/25 09:41:23;;;;;;;3.17;1.23;;;23.10;39.00;;;;;;5062245;28;20029;-63
2023/05/25 09:43:49;;;;;;;2.65;1.35;;;23.00;38.80;;;;;;5062764;28;20048;-61
2023/05/25 09:46:15;;;;;;;2.22;1.23;;;23.00;38.90;;;;;;5055681;28;20441;-65
2023/05/25 09:48:42;;;;;;;2.03;1.20;;;23.00;38.90;;;;;;5051667;28;20033;-64
2023/05/25 09:51:08;;;;;;;3.80;1.30;;;23.00;39.00;;;;;;5045148;28;20040;-64
2023/05/25 09:53:34;;;;;;;1.85;1.02;;;23.10;39.00;;;;;;5062083;28;20128;-64
2023/05/25 09:56:00;;;;;;;2.85;1.33;;;23.10;39.00;;;;;;5043044;28;20028;-61
2023/05/25 09:58:27;;;;;;;3.15;1.58;;;23.10;39.00;;;;;;5054931;28;20074;-62
2023/05/25 10:01:03;;;;;;;2.97;1.20;;;23.10;39.10;;;;;;5071348;28;20432;-63
2023/05/25 10:03:32;;;;;;;1.98;1.13;;;23.10;39.30;;;;;;5063381;28;20167;-65
2023/05/25 10:06:00;;;;;;;1.88;1.10;;;23.10;39.30;;;;;;5071748;28;20074;-63
2023/05/25 10:08:27;;;;;;;5.07;1.25;;;23.10;39.30;;;;;;5042872;28;20024;-64
2023/05/25 10:10:54;;;;;;;1.80;1.05;;;23.10;39.30;;;;;;5048855;28;20032;-61
2023/05/25 10:13:22;;;;;;;2.28;1.20;;;23.20;39.40;;;;;;5054667;28;20029;-61
2023/05/25 10:15:52;;;;;;;2.85;1.15;;;23.20;39.40;;;;;;5061690;28;20032;-62
2023/05/25 10:18:24;;;;;;;3.47;1.40;;;23.20;39.50;;;;;;5060168;28;20033;-61
2023/05/25 10:20:54;;;;;;;2.47;1.40;;;23.20;39.50;;;;;;5060184;28;20024;-63
2023/05/25 10:23:23;;;;;;;2.85;1.38;;;23.20;40.10;;;;;;5055398;28;20075;-62
2023/05/25 10:25:53;;;;;;;2.22;1.20;;;23.20;39.40;;;;;;5060131;28;20048;-61
2023/05/25 10:28:40;;;;;;;3.03;1.30;;;23.20;39.30;;;;;;5061053;28;20060;-61
2023/05/25 10:31:09;;;;;;;2.92;1.67;;;23.20;39.20;;;;;;5055459;28;20417;-64
2023/05/25 10:33:36;;;;;;;2.63;1.20;;;23.20;39.10;;;;;;5066802;28;20024;-61
2023/05/25 10:36:03;;;;;;;3.03;1.50;;;23.20;39.00;;;;;;5062615;28;20036;-63
2023/05/25 10:38:30;;;;;;;3.15;1.23;;;23.20;39.00;;;;;;5050528;28;20049;-62
2023/05/25 10:41:04;;;;;;;2.78;1.30;;;23.20;38.90;;;;;;5050497;28;20135;-61
2023/05/25 10:43:31;;;;;;;;;;;23.20;38.80;;;;;;5051501;28;20041;-64
2023/05/25 10:45:57;;;;;;;2.78;1.15;;;23.20;38.80;;;;;;5050640;28;19912;-62
2023/05/25 10:48:33;;;;;;;2.55;1.02;;;23.20;38.70;;;;;;5050762;28;20101;-63
2023/05/25 10:50:59;;;;;;;2.55;1.00;;;23.20;38.60;;;;;;5051984;28;20340;-64
2023/05/25 10:53:25;;;;;;;2.80;1.20;;;23.20;38.50;;;;;;5038751;28;20035;-63
2023/05/25 10:55:51;;;;;;;2.63;1.27;;;23.20;38.60;;;;;;5052939;28;20321;-64
2023/05/25 10:58:19;;;;;;;3.45;1.52;;;23.30;38.70;;;;;;5041459;28;20151;-65
2023/05/25 11:01:06;;;;;;;3.50;1.52;;;23.30;38.80;;;;;;5055601;28;20059;-63
2023/05/25 11:03:55;;;;;;;6.60;1.60;;;23.40;38.80;;;;;;5060859;28;20408;-63
2023/05/25 11:06:44;;;;;;;3.22;1.42;;;23.40;38.70;;;;;;5059857;28;20459;-57
2023/05/25 11:09:25;;;;;;;2.92;1.27;;;23.50;38.60;;;;;;5041991;28;20167;-62
2023/05/25 11:11:54;;;;;;;2.00;1.17;;;23.50;38.50;;;;;;5036092;28;20029;-63
2023/05/25 11:14:21;;;;;;;2.10;1.00;;;23.60;38.50;;;;;;5055999;28;20456;-63
2023/05/25 11:17:10;;;;;;;1.63;0.90;;;23.70;38.60;;;;;;5059316;28;20047;-66
2023/05/25 11:19:47;;;;;;;2.95;1.20;;;23.80;38.70;;;;;;5053924;28;20576;-64
2023/05/25 11:22:29;;;;;;;1.98;1.08;;;23.90;38.60;;;;;;5059446;28;20028;-62
2023/05/25 11:24:57;;;;;;;1.58;0.80;;;24.10;38.70;;;;;;5052485;28;20353;-59
2023/05/25 11:27:28;;;;;;;1.60;0.98;;;24.10;38.60;;;;;;5052717;28;20370;-58
2023/05/25 11:29:56;;;;;;;1.95;0.90;;;24.20;38.50;;;;;;5054206;28;20121;-59
2023/05/25 11:32:24;;;;;;;1.30;0.90;;;24.30;38.30;;;;;;5054354;28;20036;-59
2023/05/25 11:34:56;;;;;;;2.03;1.10;;;24.30;38.10;;;;;;5056070;28;20373;-60
2023/05/25 11:37:27;;;;;;;2.28;0.90;;;24.30;37.80;;;;;;5063645;28;20044;-60
2023/05/25 11:39:53;;;;;;;1.75;0.80;;;24.30;37.70;;;;;;5037824;28;20424;-58
2023/05/25 11:42:21;;;;;;;2.15;1.00;;;24.30;37.50;;;;;;5057045;28;20028;-60
2023/05/25 11:44:47;;;;;;;3.17;1.15;;;24.30;37.40;;;;;;5060807;28;20044;-58
2023/05/25 11:47:17;;;;;;;3.28;1.13;;;24.30;37.20;;;;;;5037484;28;20033;-58
2023/05/25 11:49:45;;;;;;;1.95;1.05;;;24.30;37.10;;;;;;5058228;28;20075;-60
2023/05/25 11:52:13;;;;;;;2.30;1.15;;;24.30;37.00;;;;;;5073900;28;20032;-60
2023/05/25 11:54:40;;;;;;;1.90;1.10;;;24.30;37.70;;;;;;5073126;28;20032;-59
2023/05/25 11:57:14;;;;;;;2.55;1.13;;;24.30;37.00;;;;;;5061991;28;20085;-59
2023/05/25 11:59:49;;;;;;;1.50;0.90;;;24.30;36.90;;;;;;5042062;28;20107;-59
2023/05/25 12:02:17;;;;;;;1.73;1.08;;;24.20;36.80;;;;;;5054983;28;20076;-58
2023/05/25 12:04:57;;;;;;;2.78;1.10;;;24.20;36.80;;;;;;5053547;28;20045;-58
2023/05/25 12:07:25;;;;;;;2.00;1.00;;;24.20;36.70;;;;;;5053302;28;20055;-58
2023/05/25 12:09:51;;;;;;;2.28;1.10;;;24.20;36.60;;;;;;5035735;28;20033;-60
2023/05/25 12:12:18;;;;;;;2.10;1.00;;;24.10;36.50;;;;;;5053597;28;20021;-58
2023/05/25 12:14:48;;;;;;;2.22;1.30;;;24.20;36.50;;;;;;5053499;28;20131;-60
2023/05/25 12:17:15;;;;;;;2.30;1.00;;;24.10;36.50;;;;;;5053349;28;20108;-60
2023/05/25 12:19:41;;;;;;;3.03;1.00;;;24.10;36.50;;;;;;5057104;28;20024;-58
2023/05/25 12:22:08;;;;;;;2.22;1.10;;;24.10;36.50;;;;;;5053944;28;20428;-60
2023/05/25 12:24:34;;;;;;;2.50;1.17;;;24.10;36.50;;;;;;5072875;28;20036;-60
2023/05/25 12:27:01;;;;;;;1.83;1.05;;;24.10;36.50;;;;;;5073382;28;20086;-59
2023/05/25 12:29:27;;;;;;;2.65;1.27;;;24.00;36.40;;;;;;5059988;28;20032;-59
2023/05/25 12:32:02;;;;;;;3.00;1.17;;;24.10;36.50;;;;;;5053333;28;20029;-60
2023/05/25 12:34:28;;;;;;;2.47;1.33;;;24.00;36.40;;;;;;5053527;28;20052;-60
2023/05/25 12:36:55;;;;;;;3.22;1.08;;;24.00;36.40;;;;;;5052505;28;20098;-56
2023/05/25 12:39:37;;;;;;;3.25;1.17;;;24.00;36.40;;;;;;5055311;28;20043;-60
2023/05/25 12:42:11;;;;;;;2.92;1.25;;;24.00;36.30;;;;;;5036178;28;20056;-60
2023/05/25 12:44:37;;;;;;;2.03;1.10;;;24.00;36.30;;;;;;5058531;28;20445;-56
2023/05/25 12:47:21;;;;;;;2.05;1.05;;;24.00;36.50;;;;;;5065594;28;20044;-55
2023/05/25 12:49:51;;;;;;;2.42;1.10;;;24.00;36.60;;;;;;5045833;28;20474;-58
2023/05/25 12:52:39;;;;;;;2.10;1.20;;;24.00;36.80;;;;;;5072716;28;20071;-57
2023/05/25 12:55:29;;;;;;;2.35;1.25;;;24.00;36.90;;;;;;5062693;28;20029;-61